Terminal Aerodrome Forecast
Issued by NWS

Home | Current Version | Previous Version | Text Only | Print | Product List | Glossary On
Versions: 1 2 3 4 5 6 7 8 9 10 11 12 13 14 15 16 17 18
000
FTUS44 KBMX 261201 AAA
TAFEET
TAF AMD
KEET 261201Z 2612/2712 23003KT 4SM BR OVC007
     FM261500 29008KT P6SM SCT250
     FM261800 28010G18KT P6SM SCT250
     FM270500 33005KT P6SM SCT250=

USA.gov is the U.S. government's official web portal to all federal, state and local government web resources and services.